createdAt,value
2022-08-04T00:02:09.761Z,98709.50
2022-08-04T00:07:44.240Z,98708.34
2022-08-04T00:12:51.533Z,98699.78
2022-08-04T00:18:02.515Z,98711.38
2022-08-04T00:23:10.938Z,98709.09
2022-08-04T00:28:16.658Z,98707.06
2022-08-04T00:33:22.114Z,98720.19
2022-08-04T00:38:30.351Z,98706.88
2022-08-04T00:43:37.111Z,98705.34
2022-08-04T00:49:05.835Z,98710.13
2022-08-04T00:54:19.172Z,98711.88
2022-08-04T00:59:43.321Z,98715.25
2022-08-04T01:05:00.405Z,98712.16
2022-08-04T01:10:17.791Z,98710.63
2022-08-04T01:15:31.832Z,98709.81
2022-08-04T01:21:13.246Z,98707.38
2022-08-04T01:26:57.457Z,98710.13
2022-08-04T01:32:07.896Z,98708.13
2022-08-04T01:37:28.692Z,98709.56
2022-08-04T01:42:35.955Z,98713.53
2022-08-04T01:47:46.705Z,98713.66
2022-08-04T01:52:55.201Z,98716.00
2022-08-04T01:58:03.219Z,98712.53
2022-08-04T02:03:11.567Z,98711.91
2022-08-04T02:08:24.877Z,98711.41
2022-08-04T02:13:41.749Z,98708.28
2022-08-04T02:19:00.851Z,98706.72
2022-08-04T02:24:10.937Z,98706.75
2022-08-04T02:29:20.748Z,98702.16
2022-08-04T02:34:32.967Z,98706.00
2022-08-04T02:39:42.440Z,98696.72
2022-08-04T02:44:54.386Z,98695.88
2022-08-04T02:50:04.200Z,98688.91
2022-08-04T02:55:12.550Z,98682.34
2022-08-04T03:00:20.213Z,98683.47
2022-08-04T03:05:49.960Z,98686.88
2022-08-04T03:11:16.748Z,98688.44
2022-08-04T03:16:46.319Z,98686.50
2022-08-04T03:22:24.747Z,98697.38
2022-08-04T03:28:03.473Z,98691.63
2022-08-04T03:33:39.095Z,98699.41
2022-08-04T03:39:28.741Z,98694.38
2022-08-04T03:45:23.537Z,98706.72
2022-08-04T03:51:35.429Z,98698.25
2022-08-04T03:56:56.064Z,98707.56
2022-08-04T04:02:39.392Z,98703.72
2022-08-04T04:08:04.361Z,98698.31
2022-08-04T04:13:32.886Z,98696.78
2022-08-04T04:19:02.649Z,98695.69
2022-08-04T04:24:48.246Z,98696.19
2022-08-04T04:30:06.372Z,98706.34
2022-08-04T04:35:25.627Z,98708.31
2022-08-04T04:40:51.830Z,98703.78
2022-08-04T04:46:03.358Z,98712.81
2022-08-04T04:51:22.019Z,98703.56
2022-08-04T04:56:33.492Z,98706.66
2022-08-04T05:02:14.490Z,98707.41
2022-08-04T05:07:45.747Z,98702.88
2022-08-04T05:14:35.309Z,98698.47
2022-08-04T05:18:42.246Z,98694.41
2022-08-04T05:23:54.403Z,98684.50
2022-08-04T05:29:09.523Z,98689.38
2022-08-04T05:34:18.752Z,98692.91
2022-08-04T05:39:31.035Z,98696.34
2022-08-04T05:44:41.943Z,98701.16
2022-08-04T05:49:55.618Z,98695.16
2022-08-04T05:55:08.306Z,98697.25
2022-08-04T06:00:39.737Z,98688.72
2022-08-04T06:05:48.588Z,98686.13
2022-08-04T06:10:56.600Z,98684.38
2022-08-04T06:16:05.564Z,98686.91
2022-08-04T06:21:16.360Z,98686.31
2022-08-04T06:26:22.793Z,98695.22
2022-08-04T06:32:28.711Z,98694.72
2022-08-04T06:37:43.113Z,98699.13
2022-08-04T06:42:41.685Z,98700.34
2022-08-04T06:47:51.584Z,98701.78
2022-08-04T06:52:57.979Z,98698.72
2022-08-04T06:58:05.176Z,98710.97
2022-08-04T07:03:14.489Z,98702.50
2022-08-04T07:08:19.867Z,98701.69
2022-08-04T07:13:26.538Z,98697.25
2022-08-04T07:18:34.464Z,98693.25
2022-08-04T07:23:42.802Z,98695.84
2022-08-04T07:28:49.582Z,98699.59
2022-08-04T07:34:20.617Z,98692.13
2022-08-04T07:39:28.743Z,98695.06
2022-08-04T07:44:35.108Z,98686.81
2022-08-04T07:49:54.764Z,98695.91
2022-08-04T07:55:04.045Z,98690.22
2022-08-04T08:00:11.008Z,98687.53
2022-08-04T08:05:22.339Z,98692.28
2022-08-04T08:10:27.889Z,98678.09
2022-08-04T08:15:34.142Z,98680.72
2022-08-04T08:20:42.483Z,98683.56
2022-08-04T08:25:48.085Z,98668.28
2022-08-04T08:30:53.028Z,98663.13
2022-08-04T08:36:07.583Z,98671.09
2022-08-04T08:41:43.188Z,98664.22
2022-08-04T08:47:05.099Z,98674.13
2022-08-04T08:52:56.626Z,98660.63
2022-08-04T08:58:20.241Z,98659.19
2022-08-04T09:03:49.430Z,98659.94
2022-08-04T09:09:13.939Z,98667.97
2022-08-04T09:14:25.505Z,98670.00
2022-08-04T09:19:38.842Z,98657.88
2022-08-04T09:24:53.899Z,98667.94
2022-08-04T09:30:07.732Z,98664.28
2022-08-04T09:35:26.327Z,98659.69
2022-08-04T09:40:55.453Z,98656.63
2022-08-04T09:46:09.461Z,98652.53
2022-08-04T09:51:56.859Z,98649.53
2022-08-04T09:57:17.198Z,98642.28
2022-08-04T10:02:27.240Z,98636.78
2022-08-04T10:08:15.112Z,98648.41
2022-08-04T10:13:27.960Z,98642.84
2022-08-04T10:18:47.379Z,98636.91
2022-08-04T10:24:09.250Z,98627.00
2022-08-04T10:29:19.459Z,98631.25
2022-08-04T10:34:29.546Z,98628.25
2022-08-04T10:40:03.885Z,98613.78
2022-08-04T10:45:20.032Z,98610.88
2022-08-04T10:50:28.786Z,98610.66
2022-08-04T10:56:06.922Z,98601.41
2022-08-04T11:02:00.034Z,98585.25
2022-08-04T11:06:41.427Z,98588.41
2022-08-04T11:12:00.447Z,98589.47
2022-08-04T11:17:18.514Z,98587.16
2022-08-04T11:22:28.772Z,98583.97
2022-08-04T11:27:53.075Z,98595.63
2022-08-04T11:33:12.382Z,98595.78
2022-08-04T11:38:29.158Z,98591.50
2022-08-04T11:43:56.526Z,98591.19
2022-08-04T11:49:18.387Z,98587.88
2022-08-04T11:54:24.583Z,98589.38
2022-08-04T11:59:32.104Z,98586.56
2022-08-04T12:04:49.951Z,98585.69
2022-08-04T12:10:07.779Z,98585.53
2022-08-04T12:15:22.644Z,98577.25
2022-08-04T12:20:38.348Z,98580.69
2022-08-04T12:25:51.211Z,98559.84
2022-08-04T12:31:08.425Z,98569.84
2022-08-04T12:36:23.543Z,98563.88
2022-08-04T12:41:35.996Z,98565.25
2022-08-04T12:46:44.626Z,98556.59
2022-08-04T12:52:07.980Z,98554.09
2022-08-04T12:57:16.223Z,98559.78
2022-08-04T13:02:29.097Z,98549.16
2022-08-04T13:07:45.585Z,98529.34
2022-08-04T13:13:02.699Z,98532.72
2022-08-04T13:18:15.482Z,98539.31
2022-08-04T13:23:24.464Z,98521.34
2022-08-04T13:28:31.041Z,98516.63
2022-08-04T13:33:39.176Z,98512.59
2022-08-04T13:38:53.452Z,98509.13
2022-08-04T13:44:17.445Z,98508.16
2022-08-04T13:49:42.810Z,98511.22
2022-08-04T13:54:54.917Z,98503.84
2022-08-04T14:00:04.541Z,98507.06
2022-08-04T14:05:19.052Z,98496.22
2022-08-04T14:10:27.253Z,98489.19
2022-08-04T14:15:54.783Z,98493.00
2022-08-04T14:21:10.887Z,98480.41
2022-08-04T14:26:30.211Z,98472.75
2022-08-04T14:31:55.261Z,98480.56
2022-08-04T14:37:17.721Z,98469.66
2022-08-04T14:42:43.657Z,98457.66
2022-08-04T14:47:53.339Z,98457.38
2022-08-04T14:53:06.068Z,98463.41
2022-08-04T14:58:35.798Z,98456.19
2022-08-04T15:03:49.981Z,98455.34
2022-08-04T15:08:59.677Z,98446.19
2022-08-04T15:14:08.749Z,98453.47
2022-08-04T15:19:34.491Z,98449.09
2022-08-04T15:24:39.419Z,98453.78
2022-08-04T15:29:59.260Z,98432.44
2022-08-04T15:35:07.046Z,98438.53
2022-08-04T15:40:16.395Z,98432.78
2022-08-04T15:46:36.981Z,98433.78
2022-08-04T15:51:15.172Z,98430.56
2022-08-04T15:56:48.542Z,98430.16
2022-08-04T16:02:38.690Z,98425.66
2022-08-04T16:07:57.451Z,98427.41
2022-08-04T16:13:08.449Z,98420.44
2022-08-04T16:18:26.207Z,98416.25
2022-08-04T16:24:09.681Z,98415.50
2022-08-04T16:29:38.125Z,98414.41
2022-08-04T16:34:54.317Z,98416.72
2022-08-04T16:40:36.983Z,98417.19
2022-08-04T16:46:04.715Z,98420.41
2022-08-04T16:51:14.698Z,98422.59
2022-08-04T16:56:20.762Z,98422.44
2022-08-04T17:01:33.496Z,98421.72
2022-08-04T17:06:46.448Z,98417.28
2022-08-04T17:11:51.525Z,98413.03
2022-08-04T17:16:58.908Z,98413.94
2022-08-04T17:22:10.428Z,98401.25
2022-08-04T17:28:18.962Z,98410.66
2022-08-04T17:32:40.765Z,98398.25
2022-08-04T17:37:53.065Z,98408.53
2022-08-04T17:44:01.069Z,98400.63
2022-08-04T17:48:31.163Z,98411.50
2022-08-04T17:54:02.618Z,98405.97
2022-08-04T17:59:48.247Z,98408.59
2022-08-04T18:05:05.996Z,98412.84
2022-08-04T18:10:34.817Z,98407.16
2022-08-04T18:15:46.926Z,98409.44
2022-08-04T18:20:52.274Z,98412.97
2022-08-04T18:26:02.207Z,98408.91
2022-08-04T18:31:09.647Z,98417.31
2022-08-04T18:36:32.890Z,98415.78
2022-08-04T18:42:03.852Z,98423.59
2022-08-04T18:47:28.986Z,98429.56
2022-08-04T18:52:33.308Z,98436.78
2022-08-04T18:58:00.791Z,98436.25
2022-08-04T19:03:08.088Z,98445.44
2022-08-04T19:08:32.875Z,98440.97
2022-08-04T19:13:42.857Z,98447.25
2022-08-04T19:19:00.544Z,98451.25
2022-08-04T19:24:30.267Z,98448.91
2022-08-04T19:35:01.030Z,98456.69
2022-08-04T19:40:07.247Z,98451.16
2022-08-04T19:45:16.121Z,98459.44
2022-08-04T19:50:23.925Z,98454.84
2022-08-04T19:55:36.715Z,98457.25
2022-08-04T20:00:51.346Z,98458.78
2022-08-04T20:05:57.552Z,98457.75
2022-08-04T20:11:04.413Z,98461.16
2022-08-04T20:16:28.687Z,98461.09
2022-08-04T20:21:53.780Z,98460.56
2022-08-04T20:27:00.717Z,98459.69
2022-08-04T20:32:15.572Z,98455.25
2022-08-04T20:37:23.217Z,98456.34
2022-08-04T20:42:34.252Z,98458.75
2022-08-04T20:47:42.004Z,98460.09
2022-08-04T20:52:48.083Z,98462.63
2022-08-04T20:57:58.888Z,98464.13
2022-08-04T21:03:11.403Z,98461.63
2022-08-04T21:08:16.354Z,98460.13
2022-08-04T21:13:21.280Z,98462.41
2022-08-04T21:18:29.865Z,98457.72
2022-08-04T21:23:42.041Z,98464.09
2022-08-04T21:28:46.945Z,98456.34
2022-08-04T21:33:54.724Z,98454.94
2022-08-04T21:38:59.714Z,98451.19
2022-08-04T21:44:05.179Z,98460.56
2022-08-04T21:49:12.754Z,98453.41
2022-08-04T21:54:17.968Z,98461.84
2022-08-04T21:59:30.449Z,98455.69
2022-08-04T22:04:38.409Z,98459.25
2022-08-04T22:10:00.023Z,98451.25
2022-08-04T22:16:02.727Z,98448.47
2022-08-04T22:20:35.327Z,98450.75
2022-08-04T22:25:40.280Z,98450.84
2022-08-04T22:30:51.955Z,98441.69
2022-08-04T22:35:59.729Z,98445.13
2022-08-04T22:41:08.424Z,98441.41
2022-08-04T22:46:22.089Z,98444.28
2022-08-04T22:51:29.554Z,98443.19
2022-08-04T22:56:38.378Z,98446.56
2022-08-04T23:02:00.495Z,98438.31
2022-08-04T23:07:09.793Z,98438.75
2022-08-04T23:12:30.441Z,98439.06
2022-08-04T23:17:43.825Z,98437.47
2022-08-04T23:22:55.932Z,98437.59
2022-08-04T23:28:00.955Z,98434.09
2022-08-04T23:33:08.998Z,98432.06
2022-08-04T23:38:30.443Z,98429.44
2022-08-04T23:43:38.540Z,98424.66
2022-08-04T23:48:54.855Z,98421.53
2022-08-04T23:54:04.782Z,98432.22
2022-08-04T23:59:17.854Z,98429.69
